KMPZ/MPZ METAR and TAF weather

Enter ICAO airport designator
Station Type Date Time Source
KMPZ METAR 2020/09/28 07:15 UTC NOAA

KMPZ 280715Z AUTO 22005KT 10SM CLR 10/10 A2987 RMK AO2


Station Type Date Time Source
KMPZ Decoded METAR 2020/09/28 07:15 UTC NOAA

Mount Pleasant, Mount Pleasant Municipal Airport, IA, United States (KMPZ) 40-56-48N 091-30-40W
Sep 28, 2020 - 03:15 AM EDT / 2020.09.28 0715 UTC
Wind: from the SW (220 degrees) at 6 MPH (5 KT):0
Visibility: 10 mile(s):0
Sky conditions: clear
Temperature: 50 F (10 C)
Dew Point: 50 F (10 C)
Relative Humidity: 100%
Pressure (altimeter): 29.87 in. Hg (1011 hPa)
ob: KMPZ 280715Z AUTO 22005KT 10SM CLR 10/10 A2987 RMK AO2
cycle: 7

Station Type Date Time Source
KMPZ TAF UTC NOAA

Error!

Example: see airport list